createdAt,value
2022-08-01T00:00:58.034Z,18.80
2022-08-01T00:05:00.996Z,18.80
2022-08-01T00:09:02.751Z,18.80
2022-08-01T00:13:04.515Z,18.80
2022-08-01T00:17:07.598Z,18.70
2022-08-01T00:21:09.473Z,18.70
2022-08-01T00:25:11.231Z,18.70
2022-08-01T00:30:09.700Z,18.60
2022-08-01T00:33:34.709Z,18.70
2022-08-01T00:37:36.411Z,18.80
2022-08-01T00:41:38.233Z,18.70
2022-08-01T00:45:39.892Z,18.60
2022-08-01T00:49:41.819Z,18.70
2022-08-01T00:53:52.584Z,18.60
2022-08-01T00:58:08.913Z,18.60
2022-08-01T01:02:15.567Z,18.60
2022-08-01T01:06:32.607Z,18.60
2022-08-01T01:11:00.113Z,18.60
2022-08-01T01:15:12.495Z,18.60
2022-08-01T01:19:23.495Z,18.60
2022-08-01T01:23:46.728Z,18.60
2022-08-01T01:28:15.768Z,18.60
2022-08-01T01:32:34.242Z,18.60
2022-08-01T01:36:37.796Z,18.60
2022-08-01T01:40:40.961Z,18.60
2022-08-01T01:44:45.548Z,18.50
2022-08-01T01:48:47.887Z,18.50
2022-08-01T01:52:50.951Z,18.60
2022-08-01T01:56:53.890Z,18.50
2022-08-01T02:00:59.445Z,18.50
2022-08-01T02:05:07.288Z,18.50
2022-08-01T02:09:10.463Z,18.40
2022-08-01T02:13:22.167Z,18.40
2022-08-01T02:17:25.440Z,18.40
2022-08-01T02:21:53.170Z,18.40
2022-08-01T02:26:09.775Z,18.40
2022-08-01T02:30:15.884Z,18.40
2022-08-01T02:34:19.968Z,18.40
2022-08-01T02:38:24.698Z,18.40
2022-08-01T02:42:29.057Z,18.40
2022-08-01T02:46:39.452Z,18.40
2022-08-01T02:50:44.652Z,18.40
2022-08-01T02:54:49.268Z,18.40
2022-08-01T02:58:52.617Z,18.40
2022-08-01T03:02:57.209Z,18.30
2022-08-01T03:07:01.404Z,18.40
2022-08-01T03:11:05.863Z,18.40
2022-08-01T03:15:10.148Z,18.40
2022-08-01T03:19:13.379Z,18.40
2022-08-01T03:23:17.105Z,18.40
2022-08-01T03:27:21.634Z,18.40
2022-08-01T03:31:24.803Z,18.40
2022-08-01T03:35:34.335Z,18.50
2022-08-01T03:39:45.901Z,18.50
2022-08-01T03:44:01.707Z,18.50
2022-08-01T03:48:10.402Z,18.50
2022-08-01T03:52:13.451Z,18.40
2022-08-01T03:56:20.347Z,18.50
2022-08-01T04:00:22.232Z,18.40
2022-08-01T04:04:24.576Z,18.40
2022-08-01T04:08:36.523Z,18.40
2022-08-01T04:12:38.243Z,18.40
2022-08-01T04:16:40.191Z,18.30
2022-08-01T04:20:42.399Z,18.30
2022-08-01T04:24:56.478Z,18.40
2022-08-01T04:29:01.447Z,18.40
2022-08-01T04:33:06.556Z,18.40
2022-08-01T04:37:11.252Z,18.30
2022-08-01T04:41:16.509Z,18.40
2022-08-01T04:45:19.142Z,18.40
2022-08-01T04:49:21.712Z,18.50
2022-08-01T04:53:23.554Z,18.50
2022-08-01T04:57:25.256Z,18.50
2022-08-01T05:01:26.969Z,18.50
2022-08-01T05:05:28.711Z,18.60
2022-08-01T05:09:31.601Z,18.60
2022-08-01T05:13:33.344Z,18.60
2022-08-01T05:17:35.122Z,18.60
2022-08-01T05:21:36.957Z,18.60
2022-08-01T05:25:56.744Z,18.60
2022-08-01T05:29:59.835Z,18.60
2022-08-01T05:34:02.947Z,18.60
2022-08-01T05:38:04.692Z,18.50
2022-08-01T05:42:06.955Z,18.50
2022-08-01T05:46:09.471Z,18.60
2022-08-01T05:50:11.236Z,18.60
2022-08-01T05:54:12.932Z,18.50
2022-08-01T05:58:14.637Z,18.50
2022-08-01T06:02:16.428Z,18.60
2022-08-01T06:06:18.168Z,18.50
2022-08-01T06:10:20.115Z,18.60
2022-08-01T06:14:21.832Z,18.60
2022-08-01T06:18:23.551Z,18.70
2022-08-01T06:22:25.260Z,18.70
2022-08-01T06:26:27.388Z,18.70
2022-08-01T06:30:29.161Z,18.60
2022-08-01T06:34:30.867Z,18.80
2022-08-01T06:38:32.590Z,18.80
2022-08-01T06:42:37.972Z,18.90
2022-08-01T06:46:39.797Z,19.00
2022-08-01T06:50:41.763Z,19.10
2022-08-01T06:54:43.420Z,19.20
2022-08-01T06:58:45.079Z,19.40
2022-08-01T07:02:46.942Z,19.30
2022-08-01T07:06:48.622Z,19.30
2022-08-01T07:10:50.499Z,19.50
2022-08-01T07:14:52.179Z,19.60
2022-08-01T07:18:54.550Z,19.80
2022-08-01T07:22:56.585Z,19.90
2022-08-01T07:27:01.110Z,19.90
2022-08-01T07:31:23.869Z,19.70
2022-08-01T07:35:25.626Z,20.20
2022-08-01T07:39:27.327Z,20.50
2022-08-01T07:43:37.424Z,20.70
2022-08-01T07:47:39.207Z,20.80
2022-08-01T07:51:40.942Z,20.90
2022-08-01T07:55:42.924Z,21.00
2022-08-01T07:59:47.771Z,21.20
2022-08-01T08:03:49.428Z,21.20
2022-08-01T08:07:51.255Z,21.20
2022-08-01T08:11:52.958Z,21.00
2022-08-01T08:15:54.698Z,20.90
2022-08-01T08:19:56.379Z,21.00
2022-08-01T08:24:16.710Z,21.20
2022-08-01T08:28:18.391Z,21.10
2022-08-01T08:32:21.804Z,21.00
2022-08-01T08:36:31.254Z,20.90
2022-08-01T08:40:36.358Z,21.20
2022-08-01T08:44:43.589Z,21.70
2022-08-01T08:48:46.544Z,21.70
2022-08-01T08:52:49.205Z,21.40
2022-08-01T08:56:55.180Z,21.10
2022-08-01T09:00:57.168Z,21.50
2022-08-01T09:04:59.226Z,22.70
2022-08-01T09:09:01.261Z,23.80
2022-08-01T09:13:14.431Z,24.20
2022-08-01T09:17:17.318Z,23.60
2022-08-01T09:21:28.399Z,23.50
2022-08-01T09:25:46.275Z,23.60
2022-08-01T09:30:00.586Z,23.70
2022-08-01T09:34:04.912Z,23.50
2022-08-01T09:38:15.916Z,23.10
2022-08-01T09:42:29.225Z,23.10
2022-08-01T09:46:31.308Z,23.10
2022-08-01T09:50:43.005Z,23.10
2022-08-01T09:54:57.214Z,23.10
2022-08-01T09:59:02.488Z,23.20
2022-08-01T10:03:22.769Z,24.00
2022-08-01T10:07:27.782Z,24.70
2022-08-01T10:11:45.538Z,25.60
2022-08-01T10:15:48.022Z,25.10
2022-08-01T10:19:55.422Z,24.80
2022-08-01T10:24:03.276Z,24.60
2022-08-01T10:28:15.569Z,23.90
2022-08-01T10:32:21.491Z,23.50
2022-08-01T10:36:31.414Z,23.80
2022-08-01T10:40:34.761Z,24.80
2022-08-01T10:44:38.111Z,25.40
2022-08-01T10:48:52.193Z,25.60
2022-08-01T10:53:23.386Z,25.40
2022-08-01T10:57:52.608Z,25.40
2022-08-01T11:02:03.524Z,25.60
2022-08-01T11:06:05.748Z,25.40
2022-08-01T11:10:38.476Z,25.40
2022-08-01T11:14:59.821Z,25.60
2022-08-01T11:19:01.756Z,25.60
2022-08-01T11:23:05.980Z,25.80
2022-08-01T11:27:23.948Z,25.80
2022-08-01T11:31:27.647Z,26.20
2022-08-01T11:35:29.425Z,26.40
2022-08-01T11:39:35.493Z,26.40
2022-08-01T11:44:09.103Z,26.30
2022-08-01T11:48:20.215Z,25.80
2022-08-01T11:52:27.827Z,25.00
2022-08-01T11:56:29.550Z,25.00
2022-08-01T12:00:33.462Z,25.00
2022-08-01T12:04:51.660Z,24.80
2022-08-01T12:08:53.384Z,24.60
2022-08-01T12:12:59.987Z,24.60
2022-08-01T12:17:01.683Z,25.30
2022-08-01T12:21:05.741Z,25.70
2022-08-01T12:25:09.917Z,25.80
2022-08-01T12:29:11.637Z,25.80
2022-08-01T12:33:19.372Z,25.40
2022-08-01T12:37:21.247Z,24.90
2022-08-01T12:41:23.615Z,24.90
2022-08-01T12:45:27.495Z,24.80
2022-08-01T12:49:29.533Z,24.60
2022-08-01T12:53:40.181Z,24.90
2022-08-01T12:57:46.175Z,24.90
2022-08-01T13:01:48.048Z,25.20
2022-08-01T13:05:58.441Z,25.70
2022-08-01T13:10:00.194Z,25.70
2022-08-01T13:14:02.229Z,25.60
2022-08-01T13:18:24.096Z,25.30
2022-08-01T13:22:37.969Z,25.40
2022-08-01T13:26:49.727Z,25.50
2022-08-01T13:31:01.137Z,25.50
2022-08-01T13:35:05.602Z,25.20
2022-08-01T13:39:26.519Z,25.20
2022-08-01T13:43:31.713Z,25.30
2022-08-01T13:48:11.818Z,25.30
2022-08-01T13:52:11.685Z,25.30
2022-08-01T13:56:13.404Z,25.10
2022-08-01T14:00:15.508Z,24.80
2022-08-01T14:04:17.708Z,24.80
2022-08-01T14:08:20.189Z,24.70
2022-08-01T14:12:21.988Z,24.50
2022-08-01T14:16:26.028Z,24.60
2022-08-01T14:20:27.821Z,24.40
2022-08-01T14:24:29.515Z,24.10
2022-08-01T14:28:31.270Z,24.00
2022-08-01T14:32:34.207Z,24.00
2022-08-01T14:36:38.356Z,24.00
2022-08-01T14:40:41.614Z,24.00
2022-08-01T14:44:44.882Z,24.10
2022-08-01T14:48:51.673Z,24.10
2022-08-01T14:52:54.171Z,24.20
2022-08-01T14:56:55.923Z,24.20
2022-08-01T15:00:59.177Z,24.10
2022-08-01T15:05:01.217Z,24.40
2022-08-01T15:09:08.212Z,24.50
2022-08-01T15:13:11.240Z,24.50
2022-08-01T15:17:12.975Z,24.30
2022-08-01T15:21:34.288Z,24.50
2022-08-01T15:25:41.443Z,24.40
2022-08-01T15:29:44.168Z,24.40
2022-08-01T15:33:45.918Z,24.00
2022-08-01T15:37:47.689Z,23.80
2022-08-01T15:41:49.558Z,23.50
2022-08-01T15:45:51.428Z,23.40
2022-08-01T15:49:53.309Z,23.50
2022-08-01T15:53:55.084Z,23.40
2022-08-01T15:57:56.772Z,23.40
2022-08-01T16:01:58.607Z,23.40
2022-08-01T16:06:00.344Z,23.20
2022-08-01T16:10:02.008Z,23.20
2022-08-01T16:14:03.895Z,23.20
2022-08-01T16:18:24.362Z,23.10
2022-08-01T16:22:44.726Z,23.00
2022-08-01T16:27:05.407Z,22.90
2022-08-01T16:31:17.090Z,22.90
2022-08-01T16:35:35.917Z,23.00
2022-08-01T16:39:38.461Z,23.10
2022-08-01T16:43:40.159Z,23.20
2022-08-01T16:47:48.630Z,23.10
2022-08-01T16:51:50.536Z,23.10
2022-08-01T16:55:52.231Z,23.10
2022-08-01T16:59:53.908Z,23.20
2022-08-01T17:03:58.166Z,23.10
2022-08-01T17:08:12.240Z,23.00
2022-08-01T17:12:14.480Z,23.20
2022-08-01T17:16:24.196Z,23.20
2022-08-01T17:20:25.974Z,23.20
2022-08-01T17:24:27.662Z,23.10
2022-08-01T17:28:29.345Z,23.00
2022-08-01T17:32:31.294Z,23.10
2022-08-01T17:36:33.032Z,23.00
2022-08-01T17:40:41.815Z,22.90
2022-08-01T17:44:48.793Z,22.60
2022-08-01T17:48:51.095Z,22.20
2022-08-01T17:52:52.910Z,22.20
2022-08-01T17:56:54.593Z,22.20
2022-08-01T18:00:56.363Z,22.00
2022-08-01T18:04:58.651Z,22.00
2022-08-01T18:09:01.766Z,22.00
2022-08-01T18:13:04.053Z,21.90
2022-08-01T18:17:08.836Z,21.90
2022-08-01T18:21:13.418Z,21.80
2022-08-01T18:25:15.659Z,21.70
2022-08-01T18:29:23.230Z,21.40
2022-08-01T18:33:40.535Z,21.30
2022-08-01T18:37:47.090Z,21.20
2022-08-01T18:41:58.046Z,21.00
2022-08-01T18:46:01.140Z,20.90
2022-08-01T18:50:03.208Z,20.70
2022-08-01T18:54:04.947Z,20.50
2022-08-01T18:58:06.602Z,20.40
2022-08-01T19:02:08.381Z,20.20
2022-08-01T19:06:10.188Z,19.90
2022-08-01T19:10:12.193Z,19.70
2022-08-01T19:14:13.944Z,19.60
2022-08-01T19:18:15.710Z,19.40
2022-08-01T19:22:18.519Z,19.20
2022-08-01T19:26:26.549Z,19.10
2022-08-01T19:30:31.395Z,18.80
2022-08-01T19:34:36.598Z,18.60
2022-08-01T19:38:38.310Z,18.40
2022-08-01T19:42:41.648Z,18.30
2022-08-01T19:46:44.098Z,18.10
2022-08-01T19:50:48.483Z,18.00
2022-08-01T19:54:53.940Z,17.80
2022-08-01T19:58:59.962Z,17.70
2022-08-01T20:03:03.637Z,17.50
2022-08-01T20:07:14.373Z,17.40
2022-08-01T20:11:21.776Z,17.30
2022-08-01T20:15:24.555Z,17.10
2022-08-01T20:19:26.959Z,17.00
2022-08-01T20:23:31.147Z,16.90
2022-08-01T20:27:32.815Z,16.80
2022-08-01T20:31:43.190Z,16.70
2022-08-01T20:35:53.708Z,16.60
2022-08-01T20:39:58.105Z,16.50
2022-08-01T20:44:01.291Z,16.40
2022-08-01T20:48:03.671Z,16.30
2022-08-01T20:52:12.174Z,16.20
2022-08-01T20:56:37.137Z,16.10
2022-08-01T21:00:39.925Z,16.00
2022-08-01T21:05:02.638Z,15.90
2022-08-01T21:09:06.356Z,15.90
2022-08-01T21:13:19.071Z,15.70
2022-08-01T21:18:00.719Z,15.60
2022-08-01T21:22:27.140Z,15.60
2022-08-01T21:26:29.427Z,15.50
2022-08-01T21:30:32.906Z,15.40
2022-08-01T21:34:38.147Z,15.30
2022-08-01T21:38:40.867Z,15.20
2022-08-01T21:42:46.047Z,15.20
2022-08-01T21:46:48.747Z,15.10
2022-08-01T21:50:59.381Z,15.00
2022-08-01T21:55:15.524Z,14.90
2022-08-01T21:59:39.412Z,14.90
2022-08-01T22:03:48.899Z,14.80
2022-08-01T22:07:59.435Z,14.70
2022-08-01T22:12:05.988Z,14.70
2022-08-01T22:16:09.867Z,14.60
2022-08-01T22:20:11.756Z,14.60
2022-08-01T22:24:13.838Z,14.50
2022-08-01T22:28:16.360Z,14.50
2022-08-01T22:32:18.178Z,14.60
2022-08-01T22:36:20.555Z,14.50
2022-08-01T22:40:22.263Z,14.60
2022-08-01T22:44:34.579Z,14.50
2022-08-01T22:48:51.541Z,14.50
2022-08-01T22:53:22.986Z,14.40
2022-08-01T22:57:29.501Z,14.30
2022-08-01T23:01:34.229Z,14.20
2022-08-01T23:05:41.665Z,14.10
2022-08-01T23:09:56.885Z,14.10
2022-08-01T23:14:00.367Z,13.90
2022-08-01T23:18:04.611Z,13.90
2022-08-01T23:22:07.168Z,13.90
2022-08-01T23:26:10.832Z,13.90
2022-08-01T23:30:13.422Z,13.80
2022-08-01T23:34:19.426Z,13.80
2022-08-01T23:38:21.822Z,13.80
2022-08-01T23:42:23.676Z,13.70
2022-08-01T23:46:25.372Z,13.70
2022-08-01T23:50:27.263Z,13.60
2022-08-01T23:54:30.511Z,13.60
2022-08-01T23:58:33.807Z,13.50
